Time;durP1;ratioP1;P1;durP2;ratioP2;P2;SDS_P1;SDS_P2;PMS_P1;PMS_P2;Temp;Humidity;BMP_temperature;BMP_pressure;BME280_temperature;BME280_humidity;BME280_pressure;Samples;Min_cycle;Max_cycle;Signal;HPM_P1;HPM_P2
2021/05/02 00:01:04;;;;;;;12.15;6.47;;;7.80;85.60;;;;;;5089556;28;20037;-66
2021/05/02 00:03:30;;;;;;;13.65;7.43;;;7.80;84.70;;;;;;5089825;28;20040;-66
2021/05/02 00:05:56;;;;;;;12.45;6.55;;;7.80;84.40;;;;;;5090277;28;20040;-66
2021/05/02 00:08:22;;;;;;;18.98;5.97;;;7.80;86.30;;;;;;5088456;28;20036;-65
2021/05/02 00:10:48;;;;;;;15.70;5.90;;;7.80;87.30;;;;;;5089342;28;20483;-66
2021/05/02 00:13:14;;;;;;;11.07;6.10;;;7.90;84.20;;;;;;5088099;28;20043;-66
2021/05/02 00:15:40;;;;;;;11.75;6.20;;;7.80;87.10;;;;;;5089782;28;20040;-67
2021/05/02 00:18:05;;;;;;;13.07;6.20;;;7.80;89.40;;;;;;5089125;28;20052;-66
2021/05/02 00:20:31;;;;;;;11.13;6.05;;;7.70;91.00;;;;;;5090600;28;20154;-66
2021/05/02 00:23:02;;;;;;;13.57;6.68;;;7.70;86.60;;;;;;5087118;28;20084;-66
2021/05/02 00:25:31;;;;;;;14.70;7.10;;;7.80;89.50;;;;;;5092315;28;20483;-66
2021/05/02 00:27:58;;;;;;;15.13;6.80;;;7.70;90.90;;;;;;5093877;28;20090;-66
2021/05/02 00:30:25;;;;;;;17.48;6.60;;;7.70;90.60;;;;;;5093509;28;20036;-66
2021/05/02 00:32:54;;;;;;;15.20;6.25;;;7.70;86.60;;;;;;5092822;28;20044;-66
2021/05/02 00:35:25;;;;;;;12.98;6.13;;;7.70;89.90;;;;;;5091844;28;20401;-66
2021/05/02 00:37:51;;;;;;;14.90;6.63;;;7.70;90.50;;;;;;5094292;28;20039;-66
2021/05/02 00:40:31;;;;;;;15.93;6.35;;;7.60;90.30;;;;;;5090867;28;20115;-66
2021/05/02 00:43:01;;;;;;;13.90;6.22;;;7.70;86.00;;;;;;5090058;28;20039;-66
2021/05/02 00:45:38;;;;;;;20.30;8.25;;;7.80;86.40;;;;;;5093958;28;20090;-66
2021/05/02 00:48:09;;;;;;;13.85;6.63;;;7.70;89.20;;;;;;5093855;28;20483;-67
2021/05/02 00:50:55;;;;;;;13.95;7.00;;;7.70;89.50;;;;;;5092028;28;20051;-66
2021/05/02 00:53:30;;;;;;;10.85;6.43;;;7.60;88.20;;;;;;5093146;28;20036;-66
2021/05/02 00:56:00;;;;;;;16.83;6.95;;;7.70;89.50;;;;;;5093034;28;20067;-66
2021/05/02 00:58:29;;;;;;;14.30;7.28;;;7.70;87.10;;;;;;5093186;28;20085;-66
2021/05/02 01:00:58;;;;;;;13.88;6.00;;;7.70;86.90;;;;;;5092632;28;20040;-66
2021/05/02 01:03:25;;;;;;;15.57;7.20;;;7.70;87.10;;;;;;5092751;28;20055;-66
2021/05/02 01:05:53;;;;;;;11.45;6.43;;;7.70;87.90;;;;;;5092264;28;20040;-66
2021/05/02 01:08:20;;;;;;;15.25;7.13;;;7.60;87.10;;;;;;5092788;28;20039;-66
2021/05/02 01:10:46;;;;;;;14.45;6.80;;;7.70;86.40;;;;;;5089958;28;20035;-66
2021/05/02 01:13:15;;;;;;;17.17;7.22;;;7.60;88.40;;;;;;5092738;28;20048;-66
2021/05/02 01:15:47;;;;;;;12.65;7.13;;;7.60;87.30;;;;;;5092060;28;20042;-66
2021/05/02 01:18:18;;;;;;;17.17;7.93;;;7.70;88.30;;;;;;5092487;28;20479;-65
2021/05/02 01:20:43;;;;;;;15.18;7.47;;;7.50;90.50;;;;;;5091774;28;20110;-65
2021/05/02 01:23:18;;;;;;;16.58;8.40;;;7.60;87.60;;;;;;5092369;28;20042;-65
2021/05/02 01:25:45;;;;;;;15.02;6.82;;;7.50;91.40;;;;;;5091632;28;20437;-65
2021/05/02 01:28:12;;;;;;;15.15;7.10;;;7.60;87.20;;;;;;5091485;28;20517;-66
2021/05/02 01:30:38;;;;;;;15.05;7.43;;;7.60;86.70;;;;;;5091975;28;20039;-65
2021/05/02 01:33:05;;;;;;;13.13;6.90;;;7.60;90.10;;;;;;5092242;28;20036;-66
2021/05/02 01:35:30;;;;;;;14.10;7.35;;;7.60;90.50;;;;;;5091677;28;20475;-65
2021/05/02 01:37:57;;;;;;;13.50;6.53;;;7.60;88.20;;;;;;5092725;28;20038;-66
2021/05/02 01:40:22;;;;;;;14.15;7.05;;;7.70;84.40;;;;;;5091855;28;20429;-66
2021/05/02 01:42:48;;;;;;;15.70;7.53;;;7.60;90.70;;;;;;5084122;28;20051;-66
2021/05/02 01:45:14;;;;;;;13.95;7.03;;;7.50;88.60;;;;;;5091930;28;20406;-66
2021/05/02 01:47:47;;;;;;;16.02;6.50;;;7.60;89.40;;;;;;5091208;28;20028;-66
2021/05/02 01:50:15;;;;;;;20.60;7.90;;;7.60;86.70;;;;;;5091617;28;20098;-66
2021/05/02 01:52:47;;;;;;;18.75;6.88;;;7.60;89.80;;;;;;5091227;28;20495;-66
2021/05/02 01:55:14;;;;;;;15.85;6.40;;;7.60;89.20;;;;;;5092476;28;20054;-66
2021/05/02 01:57:40;;;;;;;15.18;6.45;;;7.60;87.00;;;;;;5090420;28;20505;-66
2021/05/02 02:00:25;;;;;;;16.38;8.43;;;7.60;86.00;;;;;;5090365;28;20040;-66
2021/05/02 02:02:57;;;;;;;14.35;7.43;;;7.50;90.90;;;;;;5090817;28;20123;-66
2021/05/02 02:05:24;;;;;;;11.20;7.10;;;7.50;91.80;;;;;;5090011;28;20043;-66
2021/05/02 02:07:50;;;;;;;12.88;7.97;;;7.50;90.20;;;;;;5090895;28;20032;-66
2021/05/02 02:10:18;;;;;;;17.73;7.50;;;7.40;91.30;;;;;;5091467;28;20036;-66
2021/05/02 02:12:47;;;;;;;12.73;7.78;;;7.40;89.70;;;;;;5089865;28;20060;-66
2021/05/02 02:15:14;;;;;;;14.93;7.90;;;7.40;89.70;;;;;;5091689;28;20044;-66
2021/05/02 02:17:41;;;;;;;9.65;5.32;;;7.50;88.80;;;;;;5089244;28;20059;-66
2021/05/02 02:20:07;;;;;;;12.48;6.95;;;7.50;87.40;;;;;;5091934;28;20059;-66
2021/05/02 02:22:38;;;;;;;15.13;7.47;;;7.50;90.10;;;;;;5090691;28;20054;-66
2021/05/02 02:25:05;;;;;;;14.40;6.90;;;7.40;91.00;;;;;;5091600;28;20744;-66
2021/05/02 02:27:32;;;;;;;11.55;6.18;;;7.40;87.60;;;;;;5091984;28;20172;-66
2021/05/02 02:30:00;;;;;;;15.82;7.20;;;7.50;87.10;;;;;;5090009;28;20498;-66
2021/05/02 02:32:28;;;;;;;12.15;6.68;;;7.50;90.50;;;;;;5085978;28;20032;-66
2021/05/02 02:34:58;;;;;;;13.50;7.20;;;7.40;87.60;;;;;;5081992;28;20036;-66
2021/05/02 02:37:26;;;;;;;12.93;7.05;;;7.40;91.90;;;;;;5091721;28;20078;-66
2021/05/02 02:40:02;;;;;;;17.75;7.18;;;7.40;90.00;;;;;;5090297;28;20028;-66
2021/05/02 02:42:29;;;;;;;14.40;6.00;;;7.40;91.40;;;;;;5089492;28;20486;-65
2021/05/02 02:45:02;;;;;;;11.20;6.13;;;7.40;90.10;;;;;;5090610;28;20044;-66
2021/05/02 02:47:53;;;;;;;9.02;5.07;;;7.40;89.40;;;;;;5089673;28;20040;-66
2021/05/02 02:50:20;;;;;;;8.07;4.68;;;7.40;90.30;;;;;;5076835;28;20036;-66
2021/05/02 02:52:53;;;;;;;8.60;5.20;;;7.40;90.10;;;;;;5090649;28;20047;-65
2021/05/02 02:55:21;;;;;;;9.15;4.22;;;7.40;90.50;;;;;;5090227;28;20476;-65
2021/05/02 02:57:57;;;;;;;8.10;4.43;;;7.50;89.60;;;;;;5089355;28;20051;-65
2021/05/02 03:00:25;;;;;;;8.07;4.47;;;7.40;87.30;;;;;;5088917;28;20035;-65
2021/05/02 03:03:08;;;;;;;8.02;3.78;;;7.40;90.20;;;;;;5087371;28;20036;-65
2021/05/02 03:05:34;;;;;;;8.65;3.60;;;7.40;89.00;;;;;;5090887;28;20032;-65
2021/05/02 03:08:03;;;;;;;8.77;3.33;;;7.50;86.70;;;;;;5090303;28;20048;-65
2021/05/02 03:10:30;;;;;;;8.75;3.20;;;7.40;89.20;;;;;;5087089;28;20147;-65
2021/05/02 03:12:57;;;;;;;7.70;3.40;;;7.30;90.20;;;;;;5090130;28;20438;-65
2021/05/02 03:15:23;;;;;;;4.50;2.58;;;7.30;90.00;;;;;;5090126;28;20040;-65
2021/05/02 03:18:04;;;;;;;6.03;2.75;;;7.30;87.10;;;;;;5089552;28;20556;-65
2021/05/02 03:20:34;;;;;;;7.22;3.03;;;7.30;87.80;;;;;;5088348;28;20459;-65
2021/05/02 03:23:17;;;;;;;5.57;2.45;;;7.30;88.60;;;;;;5091239;28;20130;-65
2021/05/02 03:25:47;;;;;;;6.18;2.95;;;7.40;86.10;;;;;;5089322;28;20028;-65
2021/05/02 03:28:19;;;;;;;6.45;3.00;;;7.30;88.00;;;;;;5091111;28;20044;-65
2021/05/02 03:30:46;;;;;;;5.35;2.40;;;7.30;88.20;;;;;;5088015;28;20097;-65
2021/05/02 03:33:14;;;;;;;6.88;2.50;;;7.40;86.20;;;;;;5090939;28;20444;-65
2021/05/02 03:35:44;;;;;;;7.32;2.25;;;7.30;89.00;;;;;;5087347;28;20109;-65
2021/05/02 03:38:16;;;;;;;5.18;2.30;;;7.20;89.00;;;;;;5088183;28;20046;-65
2021/05/02 03:40:44;;;;;;;5.80;2.33;;;7.30;87.50;;;;;;5087354;28;20063;-65
2021/05/02 03:43:11;;;;;;;6.32;2.28;;;7.30;88.20;;;;;;5089331;28;20066;-65
2021/05/02 03:45:37;;;;;;;4.25;2.97;;;7.30;87.90;;;;;;5082625;28;20044;-65
2021/05/02 03:48:03;;;;;;;5.57;2.22;;;7.10;88.20;;;;;;5089134;28;20451;-65
2021/05/02 03:50:29;;;;;;;4.38;2.10;;;7.20;86.80;;;;;;5089131;28;20036;-66
2021/05/02 03:52:54;;;;;;;4.30;2.00;;;7.20;86.30;;;;;;5089526;28;20418;-66
2021/05/02 03:55:20;;;;;;;8.65;2.83;;;7.10;86.70;;;;;;5090297;28;20058;-66
2021/05/02 03:57:45;;;;;;;8.05;2.22;;;7.10;86.70;;;;;;5087940;28;20028;-66
2021/05/02 04:00:12;;;;;;;3.55;1.90;;;7.00;87.80;;;;;;5088202;28;20042;-66
2021/05/02 04:02:37;;;;;;;4.57;1.88;;;7.10;86.80;;;;;;5089494;28;20478;-65
2021/05/02 04:05:03;;;;;;;3.92;2.05;;;7.10;86.70;;;;;;5089496;28;20040;-66
2021/05/02 04:07:29;;;;;;;6.40;2.28;;;7.20;86.70;;;;;;5089345;28;20058;-65
2021/05/02 04:09:55;;;;;;;4.55;2.00;;;7.20;85.30;;;;;;5088121;28;20036;-66
2021/05/02 04:12:21;;;;;;;4.90;2.30;;;7.10;87.20;;;;;;5089177;28;20040;-66
2021/05/02 04:14:47;;;;;;;6.15;1.85;;;7.10;85.60;;;;;;5089796;28;20403;-66
2021/05/02 04:17:14;;;;;;;5.97;1.88;;;7.00;87.50;;;;;;5086416;28;20032;-65
2021/05/02 04:19:46;;;;;;;4.97;1.90;;;7.10;85.70;;;;;;5099483;22;20052;-68
2021/05/02 04:22:13;;;;;;;6.00;1.58;;;7.10;85.70;;;;;;5069774;28;20052;-68
2021/05/02 04:24:40;;;;;;;6.45;1.95;;;7.10;85.50;;;;;;5051237;28;20540;-68
2021/05/02 04:27:06;;;;;;;6.43;1.50;;;7.10;86.40;;;;;;5074887;28;20092;-68
2021/05/02 04:29:34;;;;;;;3.63;2.13;;;7.20;85.20;;;;;;5054051;28;20074;-68
2021/05/02 04:32:01;;;;;;;5.57;2.03;;;7.10;85.20;;;;;;5071155;28;20414;-68
2021/05/02 04:34:27;;;;;;;5.20;2.00;;;7.10;85.30;;;;;;5072014;28;20067;-68
2021/05/02 04:36:55;;;;;;;4.68;1.63;;;7.00;85.90;;;;;;5083854;28;20040;-66
2021/05/02 04:39:21;;;;;;;3.08;1.73;;;7.00;85.60;;;;;;5068735;28;20092;-66
2021/05/02 04:41:48;;;;;;;6.70;2.17;;;7.10;85.40;;;;;;5065430;28;20064;-66
2021/05/02 04:44:14;;;;;;;4.72;2.08;;;6.90;85.40;;;;;;5041316;28;20099;-66
2021/05/02 04:46:40;;;;;;;7.28;2.42;;;6.90;84.80;;;;;;5079844;28;20489;-66
2021/05/02 04:49:10;;;;;;;5.40;2.00;;;7.00;85.70;;;;;;5054380;28;20287;-66
2021/05/02 04:51:36;;;;;;;6.18;2.20;;;7.00;85.80;;;;;;5077465;28;20066;-68
2021/05/02 04:54:03;;;;;;;5.60;2.45;;;7.10;85.40;;;;;;5068894;28;20136;-66
2021/05/02 04:56:29;;;;;;;3.78;2.10;;;7.00;85.70;;;;;;5071188;28;20096;-66
2021/05/02 04:58:54;;;;;;;6.60;2.17;;;7.10;85.40;;;;;;5069253;28;20112;-66
2021/05/02 05:01:21;;;;;;;5.20;1.90;;;7.00;86.30;;;;;;5071425;28;20036;-66
2021/05/02 05:03:47;;;;;;;8.20;2.42;;;7.10;85.80;;;;;;5050777;28;20037;-66
2021/05/02 05:06:13;;;;;;;4.25;2.17;;;7.20;85.70;;;;;;5069829;28;20048;-66
2021/05/02 05:08:39;;;;;;;4.18;2.10;;;7.20;85.30;;;;;;5068302;28;20037;-68
2021/05/02 05:11:06;;;;;;;8.65;2.28;;;7.20;85.10;;;;;;5069807;28;20040;-68
2021/05/02 05:13:32;;;;;;;4.18;2.50;;;7.20;85.80;;;;;;5072264;28;20041;-68
2021/05/02 05:15:59;;;;;;;8.73;2.60;;;7.20;85.80;;;;;;5072316;28;20365;-65
2021/05/02 05:18:25;;;;;;;6.88;3.00;;;7.20;85.50;;;;;;5074507;28;20032;-66
2021/05/02 05:20:53;;;;;;;7.63;2.80;;;7.20;86.80;;;;;;5073599;28;20417;-65
2021/05/02 05:23:19;;;;;;;4.07;2.17;;;7.20;86.40;;;;;;5072239;28;20040;-68
2021/05/02 05:25:45;;;;;;;6.00;2.80;;;7.30;84.90;;;;;;5075650;28;20043;-68
2021/05/02 05:28:11;;;;;;;6.90;2.50;;;7.40;86.00;;;;;;5073084;28;20128;-68
2021/05/02 05:30:37;;;;;;;4.78;2.67;;;7.40;85.50;;;;;;5073843;28;20045;-68
2021/05/02 05:33:07;;;;;;;3.83;2.70;;;7.50;85.50;;;;;;5072233;28;20458;-68
2021/05/02 05:35:34;;;;;;;5.53;2.53;;;7.50;85.20;;;;;;5080458;28;20037;-68
2021/05/02 05:38:00;;;;;;;6.65;2.70;;;7.50;85.30;;;;;;5054580;28;20047;-68
2021/05/02 05:40:26;;;;;;;4.03;2.97;;;7.50;86.20;;;;;;5073106;28;20037;-68
2021/05/02 05:42:52;;;;;;;5.93;2.55;;;7.60;84.50;;;;;;5072050;28;20037;-68
2021/05/02 05:45:19;;;;;;;4.75;2.40;;;7.80;83.10;;;;;;5072021;28;20055;-68
2021/05/02 05:47:50;;;;;;;6.18;2.70;;;8.00;82.70;;;;;;5071987;28;20048;-68
2021/05/02 05:50:16;;;;;;;7.75;3.03;;;8.30;82.40;;;;;;5071375;28;20075;-68
2021/05/02 05:52:43;;;;;;;6.47;2.10;;;8.50;80.80;;;;;;5069867;28;20452;-68
2021/05/02 05:55:11;;;;;;;6.82;2.30;;;8.80;79.30;;;;;;5072081;28;20044;-68
2021/05/02 05:57:37;;;;;;;4.88;2.80;;;8.90;78.60;;;;;;5074871;28;20031;-68
2021/05/02 06:00:05;;;;;;;5.20;2.40;;;8.70;79.40;;;;;;5067602;28;20033;-68
2021/05/02 06:02:31;;;;;;;7.38;2.38;;;8.70;79.70;;;;;;5053557;28;20263;-68
2021/05/02 06:04:57;;;;;;;4.70;2.70;;;8.70;79.90;;;;;;5071498;28;20539;-69
2021/05/02 06:07:23;;;;;;;6.10;2.58;;;8.70;79.10;;;;;;5071931;28;20052;-68
2021/05/02 06:09:48;;;;;;;4.68;1.88;;;8.70;79.00;;;;;;5072356;28;20040;-68
2021/05/02 06:12:14;;;;;;;4.75;2.53;;;8.50;79.40;;;;;;5092038;28;20482;-68
2021/05/02 06:14:40;;;;;;;6.90;3.17;;;8.60;79.40;;;;;;5087807;28;20039;-68
2021/05/02 06:17:06;;;;;;;5.70;2.50;;;8.40;80.50;;;;;;5072319;28;20044;-68
2021/05/02 06:19:32;;;;;;;4.95;2.50;;;8.30;80.70;;;;;;5072376;28;20049;-68
2021/05/02 06:21:57;;;;;;;5.63;2.72;;;8.40;80.20;;;;;;5071687;28;20120;-68
2021/05/02 06:24:23;;;;;;;3.92;2.33;;;8.30;81.50;;;;;;5081326;28;20554;-68
2021/05/02 06:26:49;;;;;;;6.65;2.70;;;8.40;80.70;;;;;;5053904;28;20102;-66
2021/05/02 06:29:16;;;;;;;4.65;2.17;;;8.80;79.20;;;;;;5079753;28;20040;-66
2021/05/02 06:31:42;;;;;;;4.85;2.00;;;9.20;78.30;;;;;;5091877;28;20043;-68
2021/05/02 06:34:08;;;;;;;7.10;2.38;;;9.70;75.80;;;;;;5078470;28;20093;-68
2021/05/02 06:36:33;;;;;;;3.22;1.75;;;9.50;76.40;;;;;;5070471;28;20090;-68
2021/05/02 06:38:59;;;;;;;5.20;1.90;;;9.20;77.00;;;;;;5071295;28;20040;-68
2021/05/02 06:41:26;;;;;;;3.17;1.90;;;9.10;75.90;;;;;;5071489;28;20445;-68
2021/05/02 06:43:52;;;;;;;3.17;1.63;;;9.10;76.90;;;;;;5071086;28;20535;-68
2021/05/02 06:46:30;;;;;;;2.10;1.42;;;10.50;72.60;;;;;;5072083;28;20032;-68
2021/05/02 06:49:02;;;;;;;3.13;1.67;;;12.20;68.00;;;;;;5059255;28;20091;-68
2021/05/02 06:51:28;;;;;;;2.25;1.20;;;13.40;64.80;;;;;;5068431;28;20032;-66
2021/05/02 06:53:57;;;;;;;4.55;1.30;;;13.70;60.70;;;;;;5070961;28;20562;-66
2021/05/02 06:56:25;;;;;;;1.83;1.30;;;13.50;61.00;;;;;;5070954;28;20028;-66
2021/05/02 06:58:52;;;;;;;2.92;1.55;;;13.80;61.20;;;;;;5070889;28;20059;-66
2021/05/02 07:01:18;;;;;;;2.58;1.45;;;12.70;62.10;;;;;;5074765;28;20036;-66
2021/05/02 07:03:44;;;;;;;3.30;1.38;;;12.60;63.50;;;;;;5069532;28;20560;-66
2021/05/02 07:06:10;;;;;;;3.00;1.60;;;12.10;64.80;;;;;;5072196;28;20032;-66
2021/05/02 07:08:36;;;;;;;2.42;1.67;;;12.20;65.10;;;;;;5069981;28;20040;-67
2021/05/02 07:11:02;;;;;;;1.40;1.23;;;12.00;65.00;;;;;;5071106;28;20101;-66
2021/05/02 07:13:29;;;;;;;2.50;1.40;;;12.00;64.50;;;;;;5072616;28;20487;-68
2021/05/02 07:15:55;;;;;;;2.35;1.50;;;11.40;67.20;;;;;;5072498;28;20037;-66
2021/05/02 07:18:21;;;;;;;3.08;1.60;;;11.40;67.10;;;;;;5073372;28;20043;-68
2021/05/02 07:20:49;;;;;;;3.47;1.65;;;11.10;68.00;;;;;;5069069;28;20126;-66
2021/05/02 07:23:15;;;;;;;3.80;1.70;;;10.50;70.00;;;;;;5067998;28;20036;-67
2021/05/02 07:25:41;;;;;;;3.97;1.60;;;9.80;72.50;;;;;;5069018;28;20039;-67
2021/05/02 07:28:06;;;;;;;6.03;2.00;;;9.20;77.20;;;;;;5069928;28;20040;-67
2021/05/02 07:30:32;;;;;;;4.63;2.00;;;9.20;78.70;;;;;;5067395;28;20606;-67
2021/05/02 07:32:58;;;;;;;2.80;1.48;;;9.00;78.30;;;;;;5067560;28;20045;-66
2021/05/02 07:35:24;;;;;;;2.50;1.55;;;8.70;79.40;;;;;;5068571;28;20158;-66
2021/05/02 07:37:50;;;;;;;4.97;1.80;;;8.60;80.20;;;;;;5069574;28;20116;-67
2021/05/02 07:40:15;;;;;;;4.80;2.03;;;8.50;81.10;;;;;;5070380;28;20037;-66
2021/05/02 07:42:41;;;;;;;2.05;1.67;;;8.50;79.60;;;;;;5070108;28;20455;-67
2021/05/02 07:45:07;;;;;;;3.60;1.88;;;8.50;80.20;;;;;;5069628;28;20048;-67
2021/05/02 07:47:35;;;;;;;2.83;2.30;;;8.60;80.30;;;;;;5068384;28;20582;-67
2021/05/02 07:50:01;;;;;;;3.10;1.85;;;8.40;82.50;;;;;;5069575;28;20043;-67
2021/05/02 07:52:27;;;;;;;6.05;2.72;;;8.50;80.20;;;;;;5069615;28;20032;-67
2021/05/02 07:54:52;;;;;;;2.10;1.90;;;8.70;80.30;;;;;;5048000;28;20434;-67
2021/05/02 07:57:18;;;;;;;2.25;2.05;;;8.80;81.70;;;;;;5066403;28;20028;-67
2021/05/02 07:59:44;;;;;;;3.08;2.13;;;9.10;79.00;;;;;;5068937;28;20480;-67
2021/05/02 08:02:10;;;;;;;3.42;2.22;;;9.30;78.80;;;;;;5069859;28;20032;-67
2021/05/02 08:04:39;;;;;;;4.30;2.50;;;9.50;78.80;;;;;;5068435;28;20084;-66
2021/05/02 08:07:06;;;;;;;5.50;2.65;;;9.80;76.50;;;;;;5069530;28;20047;-66
2021/05/02 08:09:32;;;;;;;5.65;2.25;;;10.10;77.70;;;;;;5069485;28;20132;-66
2021/05/02 08:11:58;;;;;;;3.92;2.33;;;10.60;76.40;;;;;;5068455;28;20040;-66
2021/05/02 08:14:23;;;;;;;5.10;2.38;;;11.00;72.60;;;;;;5066478;28;20059;-67
2021/05/02 08:16:49;;;;;;;3.00;1.63;;;10.70;74.70;;;;;;5063362;28;20028;-66
2021/05/02 08:19:15;;;;;;;4.00;1.50;;;10.20;72.10;;;;;;5069733;28;20070;-66
2021/05/02 08:21:40;;;;;;;3.67;1.55;;;9.70;71.60;;;;;;5069505;28;20047;-66
2021/05/02 08:24:06;;;;;;;3.38;1.70;;;9.90;72.90;;;;;;5069765;28;20567;-66
2021/05/02 08:26:32;;;;;;;4.20;2.00;;;9.90;73.70;;;;;;5069212;28;20040;-66
2021/05/02 08:28:58;;;;;;;3.88;1.67;;;10.20;73.60;;;;;;5069436;28;20085;-66
2021/05/02 08:31:23;;;;;;;6.28;1.95;;;10.60;72.40;;;;;;5069691;28;20047;-66
2021/05/02 08:33:50;;;;;;;4.85;1.92;;;10.70;71.10;;;;;;5069424;28;20068;-66
2021/05/02 08:36:17;;;;;;;5.60;2.35;;;10.80;70.40;;;;;;5068863;28;20029;-66
2021/05/02 08:38:43;;;;;;;3.25;1.63;;;11.00;70.60;;;;;;5072617;28;20029;-66
2021/05/02 08:41:09;;;;;;;2.95;1.52;;;11.10;70.40;;;;;;5069209;28;20090;-66
2021/05/02 08:43:35;;;;;;;4.32;1.80;;;11.20;69.30;;;;;;5069202;28;20047;-66
2021/05/02 08:46:01;;;;;;;4.10;1.90;;;11.10;70.20;;;;;;5071415;28;20032;-66
2021/05/02 08:48:27;;;;;;;5.25;2.15;;;11.10;69.60;;;;;;5073086;28;20492;-66
2021/05/02 08:50:55;;;;;;;2.65;1.65;;;10.90;68.00;;;;;;5072590;28;20036;-66
2021/05/02 08:53:20;;;;;;;4.60;1.85;;;11.30;68.60;;;;;;5072531;28;20052;-66
2021/05/02 08:55:47;;;;;;;4.30;1.88;;;11.40;68.30;;;;;;5072781;28;20037;-66
2021/05/02 08:58:21;;;;;;;6.95;1.90;;;11.50;67.90;;;;;;5072941;28;20041;-66
2021/05/02 09:00:48;;;;;;;3.83;1.80;;;11.50;67.50;;;;;;5073000;28;20032;-66
2021/05/02 09:03:13;;;;;;;2.78;1.60;;;11.40;66.00;;;;;;5072771;28;20041;-65
2021/05/02 09:05:49;;;;;;;2.13;1.27;;;11.10;64.70;;;;;;5073156;28;20063;-65
2021/05/02 09:08:35;;;;;;;4.55;1.75;;;10.30;66.20;;;;;;5072318;28;20593;-66
2021/05/02 09:11:02;;;;;;;3.60;1.65;;;10.20;69.50;;;;;;5072391;28;20047;-66
2021/05/02 09:13:29;;;;;;;3.95;1.67;;;10.00;71.60;;;;;;5069888;28;20040;-66
2021/05/02 09:15:59;;;;;;;5.03;2.15;;;9.90;71.60;;;;;;5070477;28;20585;-65
2021/05/02 09:18:43;;;;;;;3.75;1.48;;;10.00;70.80;;;;;;5076570;28;20119;-66
2021/05/02 09:21:25;;;;;;;5.28;1.50;;;10.00;66.70;;;;;;5067268;28;20060;-65
2021/05/02 09:23:51;;;;;;;4.13;1.60;;;10.30;68.00;;;;;;5071320;28;20036;-65
2021/05/02 09:26:22;;;;;;;3.50;1.60;;;10.80;68.80;;;;;;5072664;28;20044;-65
2021/05/02 09:28:50;;;;;;;2.80;1.35;;;10.80;62.70;;;;;;5072585;28;20044;-66
2021/05/02 09:31:27;;;;;;;4.97;1.65;;;11.10;64.80;;;;;;5072666;28;20064;-66
2021/05/02 09:33:55;;;;;;;2.25;1.27;;;11.50;65.60;;;;;;5072127;28;20048;-65
2021/05/02 09:36:21;;;;;;;1.65;1.38;;;11.70;64.00;;;;;;5072448;28;20068;-66
2021/05/02 09:38:48;;;;;;;3.40;1.50;;;11.70;62.70;;;;;;5072517;28;20036;-66
2021/05/02 09:41:16;;;;;;;6.88;1.35;;;11.50;63.10;;;;;;5071527;28;20043;-66
2021/05/02 09:43:51;;;;;;;3.05;1.13;;;11.40;61.00;;;;;;5071680;28;20047;-66
2021/05/02 09:46:29;;;;;;;4.95;1.40;;;11.50;60.10;;;;;;5071371;28;20036;-66
2021/05/02 09:48:59;;;;;;;2.58;1.13;;;11.70;61.80;;;;;;5071727;28;20468;-65
2021/05/02 09:51:26;;;;;;;4.60;1.23;;;11.80;61.40;;;;;;5065800;28;20032;-66
2021/05/02 09:54:09;;;;;;;5.15;1.52;;;11.80;61.90;;;;;;5069239;28;20483;-65
2021/05/02 09:56:40;;;;;;;2.78;1.20;;;12.20;58.60;;;;;;5068997;28;20029;-66
2021/05/02 09:59:38;;;;;;;3.10;1.50;;;12.10;58.60;;;;;;5070407;28;20044;-65
2021/05/02 10:02:10;;;;;;;2.75;1.30;;;12.10;60.70;;;;;;5047595;28;20113;-65
2021/05/02 10:04:41;;;;;;;5.60;1.60;;;11.90;58.20;;;;;;5071190;28;20486;-65
2021/05/02 10:07:11;;;;;;;3.33;1.30;;;11.60;62.40;;;;;;5066941;28;20131;-65
2021/05/02 10:09:38;;;;;;;4.22;1.48;;;11.40;61.50;;;;;;5047856;28;20048;-65
2021/05/02 10:12:09;;;;;;;3.22;1.55;;;11.00;64.10;;;;;;5048861;28;20054;-66
2021/05/02 10:14:38;;;;;;;3.30;1.58;;;10.90;66.50;;;;;;5067607;28;20047;-66
2021/05/02 10:17:06;;;;;;;3.65;2.00;;;10.40;67.50;;;;;;5057916;28;20045;-66
2021/05/02 10:19:32;;;;;;;7.32;1.83;;;10.20;69.10;;;;;;5052829;28;20049;-66
2021/05/02 10:21:58;;;;;;;2.60;1.67;;;9.70;70.10;;;;;;5047882;28;20090;-66
2021/05/02 10:24:23;;;;;;;5.80;1.90;;;9.40;71.60;;;;;;5068467;28;20032;-66
2021/05/02 10:26:51;;;;;;;5.50;1.85;;;9.30;72.50;;;;;;5068592;28;20044;-66
2021/05/02 10:29:23;;;;;;;5.30;1.92;;;9.00;72.90;;;;;;5061824;28;20523;-66
2021/05/02 10:31:56;;;;;;;2.85;1.70;;;9.30;73.70;;;;;;5065133;28;20040;-66
2021/05/02 10:34:39;;;;;;;5.00;2.00;;;9.40;73.80;;;;;;5068768;28;20121;-65
2021/05/02 10:37:44;;;;;;;4.38;2.03;;;9.80;73.00;;;;;;5070394;28;20033;-65
2021/05/02 10:40:18;;;;;;;3.33;1.60;;;9.80;72.50;;;;;;5072506;28;20095;-66
2021/05/02 10:42:50;;;;;;;3.65;1.52;;;10.10;71.40;;;;;;5075962;28;21303;-65
2021/05/02 10:45:35;;;;;;;3.72;1.60;;;10.30;70.60;;;;;;5070120;28;20546;-66
2021/05/02 10:48:06;;;;;;;5.63;1.73;;;10.40;70.70;;;;;;5069424;28;20468;-66
2021/05/02 10:50:34;;;;;;;3.47;1.83;;;10.70;69.10;;;;;;5069894;28;20108;-66
2021/05/02 10:53:14;;;;;;;4.38;1.92;;;10.80;68.80;;;;;;5070564;28;20119;-66
2021/05/02 10:55:58;;;;;;;4.25;1.55;;;10.80;68.50;;;;;;5066762;28;20036;-66
2021/05/02 10:58:38;;;;;;;4.80;1.55;;;10.80;67.60;;;;;;5067362;28;20066;-66
2021/05/02 11:01:08;;;;;;;4.82;1.77;;;10.50;67.00;;;;;;5069246;28;20391;-65
2021/05/02 11:03:39;;;;;;;3.63;2.00;;;10.50;69.00;;;;;;5049544;28;20040;-65
2021/05/02 11:06:35;;;;;;;3.35;1.80;;;10.20;67.70;;;;;;5061809;28;20032;-66
2021/05/02 11:09:01;;;;;;;3.42;1.90;;;10.10;68.50;;;;;;5063222;28;20048;-65
2021/05/02 11:11:39;;;;;;;5.15;1.92;;;10.10;66.80;;;;;;5068087;28;20032;-65
2021/05/02 11:14:07;;;;;;;5.63;1.77;;;10.20;68.60;;;;;;5064364;28;20050;-65
2021/05/02 11:16:44;;;;;;;5.15;1.67;;;10.20;68.60;;;;;;5064290;28;20055;-65
2021/05/02 11:19:32;;;;;;;5.03;1.83;;;10.20;69.90;;;;;;5048116;28;20040;-65
2021/05/02 11:22:03;;;;;;;4.43;2.22;;;10.50;68.90;;;;;;5059824;28;20108;-65
2021/05/02 11:24:38;;;;;;;3.70;1.88;;;10.30;70.50;;;;;;5069106;28;20474;-65
2021/05/02 11:27:13;;;;;;;2.53;1.60;;;10.50;70.50;;;;;;5068643;28;20115;-66
2021/05/02 11:29:55;;;;;;;3.67;2.10;;;10.60;70.60;;;;;;5064443;28;20037;-66
2021/05/02 11:32:27;;;;;;;5.20;1.80;;;10.50;70.10;;;;;;5065768;28;20048;-66
2021/05/02 11:35:01;;;;;;;2.28;1.80;;;10.50;70.00;;;;;;5066185;28;20040;-66
2021/05/02 11:37:40;;;;;;;4.47;1.52;;;10.40;71.70;;;;;;5061916;28;20106;-66
2021/05/02 11:40:18;;;;;;;2.53;1.98;;;10.50;71.00;;;;;;5071223;28;20092;-66
2021/05/02 11:42:56;;;;;;;3.83;1.45;;;10.50;69.90;;;;;;5071116;28;20376;-66
2021/05/02 11:45:52;;;;;;;4.22;1.52;;;10.20;71.10;;;;;;5069450;28;20039;-66
2021/05/02 11:48:21;;;;;;;3.00;1.13;;;9.60;69.90;;;;;;5067915;28;20040;-66
2021/05/02 11:50:48;;;;;;;3.40;1.33;;;10.00;70.80;;;;;;5068872;28;20029;-66
2021/05/02 11:53:29;;;;;;;3.60;1.70;;;10.10;70.10;;;;;;5069425;28;20319;-66
2021/05/02 11:55:55;;;;;;;6.95;1.55;;;10.30;69.80;;;;;;5068252;28;20036;-66
2021/05/02 11:58:22;;;;;;;3.63;1.60;;;10.70;69.20;;;;;;5067585;28;20097;-65
2021/05/02 12:00:51;;;;;;;2.63;1.05;;;10.80;64.80;;;;;;5068743;28;20573;-65
2021/05/02 12:03:36;;;;;;;2.50;1.35;;;10.90;67.30;;;;;;5069181;28;20510;-65
2021/05/02 12:06:02;;;;;;;8.57;1.33;;;10.70;63.40;;;;;;5050929;28;21203;-66
2021/05/02 12:08:29;;;;;;;2.17;1.35;;;10.90;66.80;;;;;;5068209;28;20060;-66
2021/05/02 12:11:04;;;;;;;4.72;1.40;;;10.80;63.40;;;;;;5067427;28;20044;-66
2021/05/02 12:13:34;;;;;;;3.90;1.20;;;11.10;65.50;;;;;;5069016;28;20114;-65
2021/05/02 12:16:11;;;;;;;3.17;1.65;;;11.00;62.30;;;;;;5065071;28;20037;-66
2021/05/02 12:18:44;;;;;;;3.35;1.40;;;11.10;61.80;;;;;;5066656;28;20033;-66
2021/05/02 12:21:15;;;;;;;2.13;1.35;;;11.20;61.80;;;;;;5070154;28;20117;-66
2021/05/02 12:23:41;;;;;;;5.60;1.50;;;10.90;60.70;;;;;;5067024;28;20033;-66
2021/05/02 12:26:10;;;;;;;1.85;1.02;;;10.80;63.90;;;;;;5071560;28;20029;-66
2021/05/02 12:28:38;;;;;;;3.08;1.30;;;11.10;64.20;;;;;;5071336;28;20165;-66
2021/05/02 12:31:05;;;;;;;2.30;1.30;;;11.00;63.50;;;;;;5071419;28;20479;-66
2021/05/02 12:33:34;;;;;;;6.07;1.25;;;11.30;63.10;;;;;;5054920;28;20047;-66
2021/05/02 12:36:04;;;;;;;4.18;1.40;;;11.60;64.00;;;;;;5071836;28;20451;-66
2021/05/02 12:38:31;;;;;;;4.00;1.33;;;12.00;62.30;;;;;;5073457;28;20036;-66
2021/05/02 12:40:57;;;;;;;3.92;1.35;;;11.50;59.10;;;;;;5086684;28;20075;-66
2021/05/02 12:43:28;;;;;;;3.75;1.25;;;11.50;59.70;;;;;;5093739;28;20071;-66
2021/05/02 12:45:54;;;;;;;1.50;1.20;;;11.50;62.70;;;;;;5075111;28;20039;-66
2021/05/02 12:48:25;;;;;;;4.45;1.20;;;11.50;62.80;;;;;;5093682;28;20119;-66
2021/05/02 12:50:52;;;;;;;3.40;1.20;;;11.30;62.70;;;;;;5073331;28;20047;-66
2021/05/02 12:53:18;;;;;;;4.50;1.42;;;11.10;64.70;;;;;;5075800;28;20044;-66
2021/05/02 12:55:56;;;;;;;3.55;1.33;;;10.70;63.10;;;;;;5072023;28;20090;-66
2021/05/02 12:58:45;;;;;;;2.92;1.20;;;10.60;64.90;;;;;;5074368;28;20045;-66
2021/05/02 13:01:17;;;;;;;2.53;0.98;;;10.80;63.90;;;;;;5073473;28;20032;-66